Airfield :
LOGIN :

Register | Disclaimer

   EN    FR    IT 

 










Legend :    VFR   Marginal VFR   IFR   Intensive IFR   Very Intensive IFR
Visi :
Ceiling :
>= 8 km
>= 3000ft
5 to 8 km
1000 to 3000 ft
1500m to 5 km
500 to 1000 ft
800 to 1500m
200 to 500 ft
< 800m
< 200 ft
Symbols :   Thunderstorms  Fog  Heavy snow  Heavy precipitations  Wind > 20 kt
SIGMETs :     Misc.  Thunderstorms  Icing  Turbulence  Mountain Waves  Volcanic Ashes







- Airport Elevation : 158 ft
- IATA code : QAR


EHDL - Deelen Airbase

CURRENT METAR :
  • 210355Z AUTO 09006KT 360V140 7000 BR FEW077 OVC089 01/M00 Q1013 WHT

EXPIRED METARs :
  • 210325Z AUTO 09007KT 360V170 8000 BR FEW093 BKN120 OVC220 01/M00 Q1012 BLU
  • 210255Z AUTO 10010KT 010V160 8000 BR SCT130 OVC220 01/M00 Q1012 BLU
  • 210225Z AUTO 09009KT 010V140 8000 BR BKN093 OVC098 02/00 Q1011 BLU
  • 210155Z AUTO 10009KT 030V140 8000 BR SCT082 BKN088 OVC095 02/M00 Q1011 BLU
  • 210125Z AUTO 10009KT 010V160 8000 BR FEW088 BKN099 OVC220 01/M00 Q1011 BLU

TAF AMD TAF EHDL
Valid from the 20 at 18:00 until the 21 at 06:00 UTC


201700Z 2018/2106 08014KT 9999 SCT020 BKN040
TEMPO 2018/2021 FEW005 SCT008 BKN010
No reported NOTAMs for that airfield.



MET'MAP, your aeronautical weather chart ! - Copyright ORBIFLY December 2007 - Disclaimer

ORBIFLY MET'MAP TEAM :

Programming & Development : Alexandra Zaïnal
Concept & Development : Baudouin d'Aumeries
Co-Development & Prog : Marc-Olivier Méhu
Technical & hardware support : Manuel Goepfert

Contact : metmap@orbifly.com




SOURCES & CREDITS :

   NOAA